Terminal Aerodrome Forecast
Issued by NWS

Home | Current Version | Previous Version | Text Only | Print | Product List | Glossary On
Versions: 1 2 3 4 5 6 7 8 9 10 11 12 13
911
FTUS46 KPDT 241720
TAFALW
TAF
KALW 241720Z 2418/2518 28007KT P6SM SKC
     FM242100 36007KT P6SM SKC
     FM250400 09007KT P6SM SKC
     FM251500 18005KT P6SM SKC=

USA.gov is the U.S. government's official web portal to all federal, state and local government web resources and services.